ウィーン の空港の天気 - METARとTAF

ウィーン国際空港 ( LOWW / VIE ) - オーストリア ウィーン
飛行場実況気象(Metar)
観測時間10/22 13:50 CEST (10/22 11:50 UTC)
風向・風速東南東 2m/s
視程10km以上
天気現象
少しの雲 雲底高度 520m
気温13℃
湿度77%
気圧1020hPa
METARLOWW 221150Z 12003KT 050V160 9999 FEW017 13/09 Q1020 NOSIG
過去の天気等 Google飛行場航空写真 Wunderground天気予報

過去48時間のMETAR

飛行場予報(TAF)
発表時間: 10/22 13:15 CEST (10/22 11:15 UTC)
予報対象時間: 22日14時 CEST ~ 23日20時 CEST
風向・風速不定 2m/s
視程10km以上
少しの雲 雲底高度 460m
22日21時 CEST ~ 22日24時 CEST に徐々に
視程600m
天気現象
全天の8割程度の雲 雲底高度 60m
23日1時 CEST ~ 23日11時 CEST に一時的に
視程400m
全天を覆う雲 鉛直視程 30m
23日12時 CEST ~ 23日14時 CEST に徐々に
視程1500m
天気現象散在した霧
全天を覆う雲 雲底高度 240m
23日14時 CEST ~ 23日16時 CEST に徐々に
視程6000m
全天の8割程度の雲 雲底高度 370m
TAF LOWW 221115Z 2212/2318 VRB03KT 9999 FEW015 TX14/2214Z TN06/2303Z
BECMG 2219/2222 0600 FG BKN002
TEMPO 2223/2309 0400 VV001
BECMG 2310/2312 1500 BCFG OVC008
BECMG 2312/2314 6000 BKN012